createdAt,value
2022-10-19T00:01:05.881Z,16.98
2022-10-19T00:03:34.876Z,18.58
2022-10-19T00:06:12.328Z,20.15
2022-10-19T00:08:40.425Z,17.60
2022-10-19T00:11:08.880Z,17.10
2022-10-19T00:13:38.665Z,18.55
2022-10-19T00:16:11.519Z,17.33
2022-10-19T00:18:40.731Z,17.35
2022-10-19T00:21:10.927Z,22.02
2022-10-19T00:23:39.263Z,18.70
2022-10-19T00:26:07.671Z,19.05
2022-10-19T00:28:35.816Z,16.83
2022-10-19T00:31:06.650Z,18.98
2022-10-19T00:33:35.238Z,17.92
2022-10-19T00:36:03.338Z,20.27
2022-10-19T00:38:31.306Z,18.40
2022-10-19T00:40:59.792Z,19.85
2022-10-19T00:43:31.897Z,19.15
2022-10-19T00:45:59.884Z,15.18
2022-10-19T00:48:32.932Z,19.98
2022-10-19T00:51:01.372Z,22.73
2022-10-19T00:53:31.695Z,15.70
2022-10-19T00:56:03.818Z,18.15
2022-10-19T00:58:32.480Z,17.40
2022-10-19T01:01:03.283Z,17.67
2022-10-19T01:03:33.183Z,21.48
2022-10-19T01:06:04.118Z,16.35
2022-10-19T01:08:32.687Z,17.80
2022-10-19T01:11:14.490Z,13.80
2022-10-19T01:13:51.485Z,15.02
2022-10-19T01:16:29.835Z,14.65
2022-10-19T01:19:06.522Z,16.23
2022-10-19T01:21:40.284Z,15.82
2022-10-19T01:24:38.361Z,18.13
2022-10-19T01:27:37.529Z,15.45
2022-10-19T01:30:15.269Z,14.50
2022-10-19T01:32:53.893Z,12.85
2022-10-19T01:35:29.049Z,13.70
2022-10-19T01:38:06.457Z,14.80
2022-10-19T01:40:43.958Z,19.92
2022-10-19T01:43:19.627Z,13.75
2022-10-19T01:45:53.656Z,14.50
2022-10-19T01:48:26.247Z,13.90
2022-10-19T01:51:01.419Z,16.77
2022-10-19T01:53:33.067Z,17.55
2022-10-19T01:56:03.871Z,14.95
2022-10-19T01:58:36.499Z,13.95
2022-10-19T02:03:44.241Z,15.23
2022-10-19T02:06:14.604Z,19.00
2022-10-19T02:08:47.036Z,16.02
2022-10-19T02:11:15.939Z,13.45
2022-10-19T02:13:46.176Z,14.25
2022-10-19T02:16:20.361Z,15.35
2022-10-19T02:18:51.641Z,14.02
2022-10-19T02:21:20.181Z,17.23
2022-10-19T02:23:50.517Z,14.27
2022-10-19T02:26:22.673Z,12.90
2022-10-19T02:28:51.355Z,12.98
2022-10-19T02:31:20.796Z,12.97
2022-10-19T02:33:48.945Z,10.90
2022-10-19T02:36:17.046Z,14.18
2022-10-19T02:38:45.361Z,11.60
2022-10-19T02:41:17.854Z,11.18
2022-10-19T02:43:51.167Z,11.63
2022-10-19T02:46:25.145Z,12.82
2022-10-19T02:48:54.161Z,11.90
2022-10-19T02:51:32.839Z,9.00
2022-10-19T02:54:04.158Z,9.17
2022-10-19T02:56:33.938Z,10.25
2022-10-19T02:59:01.972Z,13.27
2022-10-19T03:01:31.585Z,13.30
2022-10-19T03:06:27.561Z,12.35
2022-10-19T03:08:55.576Z,12.20
2022-10-19T03:11:23.561Z,10.65
2022-10-19T03:13:51.596Z,10.40
2022-10-19T03:16:19.727Z,12.75
2022-10-19T03:18:50.758Z,12.07
2022-10-19T03:21:20.103Z,11.85
2022-10-19T03:23:48.139Z,14.95
2022-10-19T03:26:17.758Z,14.40
2022-10-19T03:28:45.971Z,9.95
2022-10-19T03:31:14.020Z,12.43
2022-10-19T03:33:42.053Z,12.75
2022-10-19T03:36:21.443Z,11.77
2022-10-19T03:38:51.455Z,12.43
2022-10-19T03:41:19.996Z,14.00
2022-10-19T03:43:48.453Z,14.93
2022-10-19T03:46:16.892Z,9.90
2022-10-19T03:48:45.016Z,12.45
2022-10-19T03:51:14.726Z,13.93
2022-10-19T03:53:45.057Z,11.32
2022-10-19T03:56:15.527Z,12.88
2022-10-19T03:58:45.203Z,11.35
2022-10-19T04:01:15.647Z,10.45
2022-10-19T04:03:44.386Z,13.13
2022-10-19T04:06:18.281Z,13.07
2022-10-19T04:08:51.077Z,13.02
2022-10-19T04:11:21.733Z,11.80
2022-10-19T04:13:50.429Z,12.68
2022-10-19T04:16:19.023Z,13.35
2022-10-19T04:18:47.091Z,15.63
2022-10-19T04:21:23.010Z,14.57
2022-10-19T04:23:53.791Z,13.60
2022-10-19T04:26:22.309Z,12.60
2022-10-19T04:28:50.756Z,14.98
2022-10-19T04:31:18.865Z,15.43
2022-10-19T04:36:19.858Z,16.77
2022-10-19T04:38:47.977Z,18.30
2022-10-19T04:41:19.746Z,19.20
2022-10-19T04:43:48.285Z,16.30
2022-10-19T04:46:17.605Z,20.77
2022-10-19T04:48:47.487Z,18.52
2022-10-19T04:51:15.942Z,18.15
2022-10-19T04:53:44.514Z,22.90
2022-10-19T04:56:15.536Z,24.23
2022-10-19T04:58:45.204Z,21.17
2022-10-19T05:01:17.400Z,19.65
2022-10-19T05:03:45.767Z,20.90
2022-10-19T05:06:14.728Z,20.40
2022-10-19T05:08:43.006Z,22.92
2022-10-19T05:11:14.147Z,20.33
2022-10-19T05:13:44.506Z,19.15
2022-10-19T05:16:14.453Z,26.80
2022-10-19T05:18:42.639Z,30.75
2022-10-19T05:21:12.489Z,26.80
2022-10-19T05:23:41.737Z,25.38
2022-10-19T05:26:11.936Z,20.35
2022-10-19T05:28:40.497Z,20.35
2022-10-19T05:31:12.705Z,23.93
2022-10-19T05:33:41.331Z,19.23
2022-10-19T05:36:18.312Z,20.20
2022-10-19T05:38:48.083Z,19.92
2022-10-19T05:41:16.842Z,20.90
2022-10-19T05:43:45.836Z,21.23
2022-10-19T05:46:18.468Z,21.33
2022-10-19T05:48:47.430Z,20.40
2022-10-19T05:51:19.349Z,23.05
2022-10-19T05:53:47.836Z,24.88
2022-10-19T05:56:17.946Z,35.13
2022-10-19T05:58:46.334Z,26.80
2022-10-19T06:01:16.466Z,26.10
2022-10-19T06:03:44.889Z,29.02
2022-10-19T06:06:13.160Z,28.85
2022-10-19T06:08:41.304Z,26.83
2022-10-19T06:11:11.319Z,29.13
2022-10-19T06:13:39.777Z,28.08
2022-10-19T06:16:09.286Z,31.80
2022-10-19T06:21:08.860Z,28.20
2022-10-19T06:23:37.322Z,24.73
2022-10-19T06:26:07.610Z,26.17
2022-10-19T06:28:36.288Z,25.52
2022-10-19T06:31:07.157Z,31.02
2022-10-19T06:33:40.922Z,45.95
2022-10-19T06:36:10.361Z,47.55
2022-10-19T06:38:38.925Z,53.70
2022-10-19T06:41:07.406Z,48.35
2022-10-19T06:43:35.857Z,55.78
2022-10-19T06:46:05.725Z,38.92
2022-10-19T06:48:33.872Z,44.28
2022-10-19T06:51:06.666Z,37.83
2022-10-19T06:53:34.728Z,57.08
2022-10-19T06:56:04.837Z,44.80
2022-10-19T06:58:36.157Z,32.42
2022-10-19T07:01:07.462Z,35.55
2022-10-19T07:03:36.820Z,41.70
2022-10-19T07:06:08.192Z,38.50
2022-10-19T07:08:38.078Z,39.03
2022-10-19T07:11:07.605Z,39.40
2022-10-19T07:16:06.736Z,25.58
2022-10-19T07:18:35.596Z,33.72
2022-10-19T07:21:07.767Z,27.38
2022-10-19T07:23:37.362Z,28.40
2022-10-19T07:26:07.200Z,29.88
2022-10-19T07:28:35.446Z,30.20
2022-10-19T07:31:07.883Z,26.60
2022-10-19T07:33:36.016Z,30.75
2022-10-19T07:36:07.736Z,28.35
2022-10-19T07:38:37.082Z,31.80
2022-10-19T07:41:07.086Z,25.90
2022-10-19T07:43:35.779Z,23.25
2022-10-19T07:46:06.757Z,18.00
2022-10-19T07:48:35.115Z,18.83
2022-10-19T07:51:04.816Z,20.63
2022-10-19T07:53:35.053Z,19.10
2022-10-19T07:56:06.805Z,16.15
2022-10-19T07:58:35.343Z,15.95
2022-10-19T08:01:04.331Z,14.57
2022-10-19T08:04:14.217Z,17.52
2022-10-19T08:06:21.513Z,13.07
2022-10-19T08:08:51.359Z,14.00
2022-10-19T08:11:21.603Z,16.35
2022-10-19T08:13:49.870Z,12.18
2022-10-19T08:16:28.436Z,11.98
2022-10-19T08:18:59.812Z,10.83
2022-10-19T08:21:28.706Z,11.77
2022-10-19T08:23:58.508Z,13.10
2022-10-19T08:26:28.917Z,11.95
2022-10-19T08:29:00.684Z,11.48
2022-10-19T08:31:29.112Z,10.48
2022-10-19T08:33:57.568Z,8.73
2022-10-19T08:36:26.018Z,10.57
2022-10-19T08:38:54.093Z,8.27
2022-10-19T08:41:33.729Z,9.68
2022-10-19T08:44:24.985Z,12.75
2022-10-19T08:47:02.589Z,16.15
2022-10-19T08:49:32.796Z,16.70
2022-10-19T08:52:05.091Z,17.92
2022-10-19T08:54:41.042Z,18.65
2022-10-19T08:57:21.872Z,20.52
2022-10-19T08:59:55.778Z,20.67
2022-10-19T09:02:50.296Z,18.60
2022-10-19T09:05:30.041Z,17.70
2022-10-19T09:07:58.238Z,14.60
2022-10-19T09:10:30.253Z,15.55
2022-10-19T09:13:02.614Z,15.80
2022-10-19T09:15:37.526Z,16.02
2022-10-19T09:18:10.725Z,16.90
2022-10-19T09:20:42.289Z,17.17
2022-10-19T09:23:21.157Z,15.38
2022-10-19T09:25:51.123Z,17.75
2022-10-19T09:28:42.221Z,17.20
2022-10-19T09:31:17.021Z,16.83
2022-10-19T09:33:52.027Z,20.00
2022-10-19T09:36:22.727Z,21.98
2022-10-19T09:38:55.782Z,20.20
2022-10-19T09:41:25.313Z,18.88
2022-10-19T09:46:37.029Z,21.30
2022-10-19T09:49:07.160Z,20.65
2022-10-19T09:51:52.415Z,23.33
2022-10-19T09:54:36.995Z,22.70
2022-10-19T09:57:06.329Z,22.88
2022-10-19T09:59:37.960Z,19.48
2022-10-19T10:02:18.143Z,23.63
2022-10-19T10:04:57.475Z,21.30
2022-10-19T10:09:56.341Z,15.07
2022-10-19T10:12:24.913Z,17.17
2022-10-19T10:14:56.216Z,13.70
2022-10-19T10:17:30.335Z,14.05
2022-10-19T10:20:27.728Z,13.65
2022-10-19T10:22:59.316Z,13.80
2022-10-19T10:25:30.031Z,15.35
2022-10-19T10:28:01.341Z,13.68
2022-10-19T10:30:35.657Z,16.58
2022-10-19T10:33:13.497Z,13.68
2022-10-19T10:35:57.637Z,12.90
2022-10-19T10:38:28.440Z,13.25
2022-10-19T10:41:00.868Z,12.93
2022-10-19T10:43:32.188Z,11.10
2022-10-19T10:46:06.781Z,11.77
2022-10-19T10:48:39.613Z,11.48
2022-10-19T10:51:21.653Z,12.43
2022-10-19T10:53:50.276Z,12.02
2022-10-19T10:56:25.569Z,10.82
2022-10-19T10:58:59.052Z,10.27
2022-10-19T11:01:34.336Z,11.60
2022-10-19T11:04:05.690Z,9.13
2022-10-19T11:06:39.604Z,10.52
2022-10-19T11:09:17.640Z,10.43
2022-10-19T11:11:48.099Z,9.13
2022-10-19T11:14:36.884Z,9.93
2022-10-19T11:17:14.469Z,10.93
2022-10-19T11:19:44.430Z,9.80
2022-10-19T11:22:24.881Z,9.02
2022-10-19T11:25:16.473Z,8.27
2022-10-19T11:27:53.892Z,8.57
2022-10-19T11:30:23.357Z,8.05
2022-10-19T11:33:02.568Z,7.45
2022-10-19T11:35:52.771Z,6.88
2022-10-19T11:38:33.443Z,8.23
2022-10-19T11:41:17.890Z,7.22
2022-10-19T11:43:57.702Z,7.50
2022-10-19T11:46:31.590Z,6.60
2022-10-19T11:49:20.520Z,8.57
2022-10-19T11:51:57.968Z,10.82
2022-10-19T11:54:39.944Z,10.93
2022-10-19T11:57:14.301Z,11.30
2022-10-19T12:00:00.252Z,13.20
2022-10-19T12:03:07.828Z,11.95
2022-10-19T12:08:29.399Z,15.77
2022-10-19T12:11:04.977Z,12.40
2022-10-19T12:13:40.562Z,10.32
2022-10-19T12:16:11.125Z,12.35
2022-10-19T12:18:42.849Z,10.95
2022-10-19T12:21:18.902Z,10.27
2022-10-19T12:23:48.032Z,8.07
2022-10-19T12:28:51.609Z,11.05
2022-10-19T12:31:20.221Z,9.23
2022-10-19T12:33:57.535Z,10.02
2022-10-19T12:36:38.097Z,11.68
2022-10-19T12:39:13.469Z,9.90
2022-10-19T12:41:46.855Z,9.07
2022-10-19T12:44:38.849Z,9.23
2022-10-19T12:47:12.865Z,7.85
2022-10-19T12:49:49.148Z,10.65
2022-10-19T12:52:41.845Z,9.75
2022-10-19T12:55:29.636Z,8.35
2022-10-19T12:58:01.505Z,9.38
2022-10-19T13:00:32.265Z,7.72
2022-10-19T13:03:04.534Z,9.65
2022-10-19T13:05:34.557Z,8.95
2022-10-19T13:08:07.983Z,7.65
2022-10-19T13:10:39.140Z,8.10
2022-10-19T13:13:27.382Z,7.68
2022-10-19T13:15:55.408Z,7.27
2022-10-19T13:19:07.231Z,11.98
2022-10-19T13:21:45.667Z,7.93
2022-10-19T13:24:28.942Z,10.57
2022-10-19T13:27:26.460Z,7.95
2022-10-19T13:29:54.666Z,6.68
2022-10-19T13:32:38.217Z,8.13
2022-10-19T13:35:33.171Z,7.68
2022-10-19T13:38:28.811Z,9.23
2022-10-19T13:41:18.175Z,6.35
2022-10-19T13:44:04.810Z,6.85
2022-10-19T13:46:55.391Z,7.50
2022-10-19T13:49:37.463Z,6.55
2022-10-19T13:52:24.272Z,9.93
2022-10-19T13:55:32.962Z,7.63
2022-10-19T13:58:31.095Z,7.43
2022-10-19T14:01:13.140Z,9.90
2022-10-19T14:04:05.044Z,7.50
2022-10-19T14:06:37.644Z,12.57
2022-10-19T14:09:45.585Z,7.28
2022-10-19T14:12:19.929Z,10.60
2022-10-19T14:14:50.199Z,8.95
2022-10-19T14:17:20.606Z,9.27
2022-10-19T14:19:50.477Z,8.85
2022-10-19T14:22:21.178Z,10.15
2022-10-19T14:24:49.164Z,9.82
2022-10-19T14:27:22.252Z,9.75
2022-10-19T14:29:53.848Z,9.13
2022-10-19T14:32:25.826Z,8.93
2022-10-19T14:34:55.599Z,10.98
2022-10-19T14:37:26.722Z,10.05
2022-10-19T14:40:07.208Z,9.40
2022-10-19T14:42:41.981Z,9.15
2022-10-19T14:45:19.907Z,8.85
2022-10-19T14:47:57.031Z,12.13
2022-10-19T14:50:30.473Z,10.25
2022-10-19T14:53:03.156Z,8.73
2022-10-19T14:55:37.042Z,11.60
2022-10-19T14:58:11.472Z,10.48
2022-10-19T15:00:41.457Z,11.55
2022-10-19T15:03:14.309Z,10.38
2022-10-19T15:05:48.839Z,11.45
2022-10-19T15:08:23.655Z,12.90
2022-10-19T15:10:52.244Z,11.15
2022-10-19T15:13:25.346Z,11.03
2022-10-19T15:15:55.600Z,13.52
2022-10-19T15:18:47.476Z,12.98
2022-10-19T15:21:15.310Z,12.48
2022-10-19T15:23:45.724Z,11.27
2022-10-19T15:26:20.412Z,12.07
2022-10-19T15:28:49.638Z,11.73
2022-10-19T15:31:21.677Z,10.57
2022-10-19T15:33:52.305Z,13.20
2022-10-19T15:36:22.320Z,11.52
2022-10-19T15:39:11.585Z,14.18
2022-10-19T15:41:49.018Z,14.30
2022-10-19T15:44:32.581Z,14.30
2022-10-19T15:47:21.674Z,12.18
2022-10-19T15:49:59.037Z,16.70
2022-10-19T15:52:28.794Z,12.25
2022-10-19T15:54:58.813Z,11.35
2022-10-19T15:57:30.090Z,18.67
2022-10-19T15:59:59.996Z,17.40
2022-10-19T16:02:29.432Z,17.05
2022-10-19T16:04:57.467Z,15.27
2022-10-19T16:07:27.971Z,16.75
2022-10-19T16:09:56.110Z,18.13
2022-10-19T16:12:24.477Z,18.92
2022-10-19T16:14:52.598Z,15.35
2022-10-19T16:17:20.825Z,16.48
2022-10-19T16:19:50.239Z,14.70
2022-10-19T16:22:18.412Z,15.45
2022-10-19T16:24:46.388Z,16.13
2022-10-19T16:27:16.163Z,15.18
2022-10-19T16:29:44.723Z,17.63
2022-10-19T16:32:12.770Z,17.57
2022-10-19T16:34:42.313Z,19.08
2022-10-19T16:39:39.513Z,17.92
2022-10-19T16:42:07.540Z,19.75
2022-10-19T16:44:35.582Z,20.95
2022-10-19T16:47:03.960Z,21.30
2022-10-19T16:49:32.276Z,23.48
2022-10-19T16:52:01.587Z,19.88
2022-10-19T16:54:32.636Z,19.70
2022-10-19T16:57:00.652Z,26.73
2022-10-19T16:59:28.617Z,21.75
2022-10-19T17:01:56.689Z,19.30
2022-10-19T17:04:25.987Z,20.25
2022-10-19T17:06:53.956Z,24.02
2022-10-19T17:09:41.888Z,24.85
2022-10-19T17:12:12.291Z,29.88
2022-10-19T17:14:41.448Z,28.60
2022-10-19T17:17:11.011Z,42.40
2022-10-19T17:22:06.968Z,25.50
2022-10-19T17:24:35.148Z,25.83
2022-10-19T17:27:03.839Z,26.30
2022-10-19T17:29:33.210Z,23.90
2022-10-19T17:32:01.195Z,22.20
2022-10-19T17:34:29.232Z,22.90
2022-10-19T17:36:57.746Z,24.50
2022-10-19T17:39:29.150Z,28.20
2022-10-19T17:42:01.615Z,26.02
2022-10-19T17:44:31.243Z,23.33
2022-10-19T17:47:01.347Z,21.67
2022-10-19T17:49:29.887Z,23.08
2022-10-19T17:51:58.095Z,18.57
2022-10-19T17:54:26.233Z,18.85
2022-10-19T17:56:54.229Z,21.83
2022-10-19T17:59:30.206Z,26.38
2022-10-19T18:02:06.217Z,23.13
2022-10-19T18:07:03.112Z,20.27
2022-10-19T18:09:31.200Z,20.50
2022-10-19T18:12:02.268Z,20.70
2022-10-19T18:14:32.588Z,17.30
2022-10-19T18:17:00.616Z,16.48
2022-10-19T18:19:29.937Z,17.30
2022-10-19T18:21:57.976Z,20.25
2022-10-19T18:24:26.416Z,17.85
2022-10-19T18:26:54.529Z,19.00
2022-10-19T18:29:24.612Z,15.48
2022-10-19T18:31:53.107Z,16.92
2022-10-19T18:34:23.359Z,14.37
2022-10-19T18:36:53.546Z,16.15
2022-10-19T18:39:22.207Z,12.30
2022-10-19T18:41:54.047Z,16.52
2022-10-19T18:44:26.302Z,17.20
2022-10-19T18:46:55.371Z,14.35
2022-10-19T18:49:23.890Z,13.77
2022-10-19T18:51:55.442Z,14.13
2022-10-19T18:54:24.559Z,14.73
2022-10-19T18:56:52.641Z,13.82
2022-10-19T18:59:20.746Z,19.58
2022-10-19T19:01:51.011Z,13.95
2022-10-19T19:04:19.084Z,15.10
2022-10-19T19:06:47.130Z,14.18
2022-10-19T19:09:17.430Z,12.88
2022-10-19T19:11:45.540Z,12.70
2022-10-19T19:14:15.736Z,13.27
2022-10-19T19:16:45.525Z,13.93
2022-10-19T19:19:15.369Z,13.23
2022-10-19T19:21:44.986Z,15.60
2022-10-19T19:24:15.648Z,14.38
2022-10-19T19:26:49.309Z,14.13
2022-10-19T19:29:17.829Z,11.65
2022-10-19T19:31:47.822Z,12.57
2022-10-19T19:34:15.943Z,11.25
2022-10-19T19:36:47.870Z,14.30
2022-10-19T19:39:18.673Z,12.43
2022-10-19T19:41:48.673Z,9.85
2022-10-19T19:44:17.699Z,15.48
2022-10-19T19:46:45.780Z,12.55
2022-10-19T19:49:13.996Z,12.60
2022-10-19T19:51:42.035Z,12.55
2022-10-19T19:54:11.157Z,12.50
2022-10-19T19:56:40.009Z,10.15
2022-10-19T19:59:11.496Z,8.93
2022-10-19T20:01:40.319Z,12.68
2022-10-19T20:04:08.391Z,7.28
2022-10-19T20:06:38.151Z,12.05
2022-10-19T20:09:07.356Z,13.18
2022-10-19T20:11:38.415Z,13.80
2022-10-19T20:14:11.647Z,9.98
2022-10-19T20:16:39.654Z,10.52
2022-10-19T20:19:10.134Z,12.38
2022-10-19T20:21:38.264Z,15.85
2022-10-19T20:24:06.746Z,18.13
2022-10-19T20:26:34.799Z,12.55
2022-10-19T20:29:03.849Z,11.15
2022-10-19T20:31:39.095Z,11.23
2022-10-19T20:34:13.622Z,13.95
2022-10-19T20:36:41.691Z,16.05
2022-10-19T20:39:10.298Z,10.23
2022-10-19T20:41:38.317Z,13.97
2022-10-19T20:44:06.653Z,9.63
2022-10-19T20:46:36.933Z,9.55
2022-10-19T20:49:04.990Z,8.10
2022-10-19T20:51:36.484Z,7.25
2022-10-19T20:54:05.889Z,8.55
2022-10-19T20:56:35.442Z,10.88
2022-10-19T21:01:40.219Z,9.73
2022-10-19T21:04:14.811Z,10.38
2022-10-19T21:06:44.838Z,11.65
2022-10-19T21:09:14.378Z,10.15
2022-10-19T21:11:43.819Z,11.30
2022-10-19T21:14:14.650Z,9.52
2022-10-19T21:16:44.271Z,9.27
2022-10-19T21:19:14.219Z,7.47
2022-10-19T21:21:44.114Z,8.63
2022-10-19T21:24:13.502Z,10.95
2022-10-19T21:26:41.948Z,11.10
2022-10-19T21:29:11.537Z,9.02
2022-10-19T21:34:15.729Z,12.77
2022-10-19T21:36:43.777Z,11.70
2022-10-19T21:39:11.836Z,12.50
2022-10-19T21:41:39.943Z,12.60
2022-10-19T21:44:08.211Z,13.07
2022-10-19T21:46:36.329Z,10.93
2022-10-19T21:49:04.598Z,15.00
2022-10-19T21:51:37.741Z,13.00
2022-10-19T21:54:07.673Z,14.73
2022-10-19T21:56:35.905Z,12.55
2022-10-19T21:59:04.163Z,12.73
2022-10-19T22:01:38.532Z,12.65
2022-10-19T22:04:11.909Z,13.40
2022-10-19T22:06:41.818Z,13.68
2022-10-19T22:09:12.768Z,12.40
2022-10-19T22:11:40.772Z,13.02
2022-10-19T22:14:08.842Z,11.30
2022-10-19T22:16:37.154Z,14.40
2022-10-19T22:19:05.932Z,13.05
2022-10-19T22:21:35.555Z,12.45
2022-10-19T22:26:37.370Z,13.82
2022-10-19T22:29:07.151Z,15.40
2022-10-19T22:31:36.258Z,11.02
2022-10-19T22:34:06.413Z,19.95
2022-10-19T22:36:34.450Z,13.23
2022-10-19T22:39:03.069Z,12.55
2022-10-19T22:41:32.417Z,16.70
2022-10-19T22:44:00.460Z,11.00
2022-10-19T22:46:28.457Z,13.32
2022-10-19T22:48:56.524Z,13.45
2022-10-19T22:51:24.610Z,12.68
2022-10-19T22:53:52.573Z,13.13
2022-10-19T22:56:20.635Z,14.55
2022-10-19T22:58:50.103Z,11.15
2022-10-19T23:03:46.307Z,13.85
2022-10-19T23:06:16.011Z,15.63
2022-10-19T23:08:44.924Z,15.73
2022-10-19T23:11:13.440Z,19.20
2022-10-19T23:13:42.074Z,14.57
2022-10-19T23:16:11.857Z,18.17
2022-10-19T23:18:41.785Z,19.33
2022-10-19T23:21:12.583Z,16.55
2022-10-19T23:23:40.695Z,15.60
2022-10-19T23:26:10.560Z,15.63
2022-10-19T23:28:40.857Z,18.00
2022-10-19T23:31:12.931Z,15.82
2022-10-19T23:33:41.117Z,14.73
2022-10-19T23:36:11.029Z,12.52
2022-10-19T23:38:39.067Z,18.20
2022-10-19T23:41:07.694Z,23.88
2022-10-19T23:46:04.804Z,17.08
2022-10-19T23:48:34.809Z,14.73
2022-10-19T23:51:05.390Z,16.58
2022-10-19T23:53:38.409Z,20.83
2022-10-19T23:56:10.755Z,13.55
2022-10-19T23:58:38.740Z,15.07
